Time;durP1;ratioP1;P1;durP2;ratioP2;P2;SDS_P1;SDS_P2;PMS_P1;PMS_P2;Temp;Humidity;BMP_temperature;BMP_pressure;BME280_temperature;BME280_humidity;BME280_pressure;Samples;Min_cycle;Max_cycle;Signal;HPM_P1;HPM_P2
2022/04/16 00:01:52;;;;;;;17.05;9.88;;;6.60;99.90;;;;;;5014531;28;20046;-85
2022/04/16 00:04:18;;;;;;;14.70;9.35;;;6.60;99.90;;;;;;4997933;28;20125;-84
2022/04/16 00:06:44;;;;;;;15.20;8.75;;;6.50;99.90;;;;;;4981362;28;20133;-85
2022/04/16 00:09:10;;;;;;;17.08;9.80;;;6.60;99.90;;;;;;4997608;28;20045;-85
2022/04/16 00:11:37;;;;;;;16.27;9.68;;;6.60;99.90;;;;;;5014164;28;20380;-85
2022/04/16 00:14:03;;;;;;;12.77;8.50;;;6.50;99.90;;;;;;5013827;28;20049;-84
2022/04/16 00:16:30;;;;;;;16.45;8.93;;;6.40;99.90;;;;;;5013639;28;20132;-84
2022/04/16 00:18:58;;;;;;;13.90;9.75;;;6.50;99.90;;;;;;4997199;28;20046;-84
2022/04/16 00:21:24;;;;;;;12.75;8.60;;;6.40;99.90;;;;;;4997769;28;20066;-85
2022/04/16 00:23:51;;;;;;;14.57;8.68;;;6.40;99.90;;;;;;5013491;28;20117;-85
2022/04/16 00:26:18;;;;;;;15.93;9.68;;;6.40;99.90;;;;;;5013821;28;20054;-85
2022/04/16 00:28:44;;;;;;;15.50;8.98;;;6.40;99.90;;;;;;4981183;28;20053;-85
2022/04/16 00:31:11;;;;;;;13.85;8.90;;;6.30;99.90;;;;;;5013758;28;20050;-85
2022/04/16 00:33:37;;;;;;;12.88;9.43;;;6.30;99.90;;;;;;4996808;28;20056;-84
2022/04/16 00:36:03;;;;;;;13.10;8.40;;;6.30;99.90;;;;;;5012362;28;20053;-84
2022/04/16 00:38:29;;;;;;;15.05;9.02;;;6.20;99.90;;;;;;5013172;28;20344;-84
2022/04/16 00:40:55;;;;;;;14.02;8.40;;;6.10;99.90;;;;;;5013201;28;20421;-84
2022/04/16 00:43:27;;;;;;;14.52;9.45;;;6.10;99.90;;;;;;5013297;28;20049;-84
2022/04/16 00:45:54;;;;;;;14.90;8.32;;;6.10;99.90;;;;;;5013553;28;20229;-84
2022/04/16 00:48:23;;;;;;;14.70;9.20;;;6.10;99.90;;;;;;5013479;28;20466;-84
2022/04/16 00:50:54;;;;;;;14.18;8.95;;;6.10;99.90;;;;;;4997641;28;20058;-84
2022/04/16 00:53:21;;;;;;;16.00;8.63;;;6.00;99.90;;;;;;5012315;28;20097;-84
2022/04/16 00:55:48;;;;;;;13.10;9.27;;;6.10;99.90;;;;;;4996509;28;20407;-84
2022/04/16 00:58:13;;;;;;;15.05;9.48;;;6.10;99.90;;;;;;5013561;28;20422;-83
2022/04/16 01:00:39;;;;;;;16.23;9.38;;;6.10;99.90;;;;;;4996131;28;20042;-84
2022/04/16 01:03:06;;;;;;;13.32;9.43;;;6.20;99.90;;;;;;5013835;28;20042;-84
2022/04/16 01:05:31;;;;;;;14.88;9.32;;;6.00;99.90;;;;;;5013790;28;20418;-85
2022/04/16 01:07:59;;;;;;;15.80;8.63;;;6.00;99.90;;;;;;5013262;28;20099;-84
2022/04/16 01:10:26;;;;;;;16.60;9.90;;;6.30;99.90;;;;;;5012889;28;20050;-85
2022/04/16 01:12:53;;;;;;;15.88;8.50;;;5.90;99.90;;;;;;4996879;28;20046;-85
2022/04/16 01:15:20;;;;;;;14.13;8.70;;;5.90;99.90;;;;;;4996518;28;20410;-84
2022/04/16 01:17:51;;;;;;;13.70;9.23;;;5.90;99.90;;;;;;4965499;28;20100;-85
2022/04/16 01:20:18;;;;;;;14.63;9.00;;;5.90;99.90;;;;;;4996538;28;20042;-85
2022/04/16 01:22:51;;;;;;;13.70;7.88;;;5.80;99.90;;;;;;5012745;28;20053;-85
2022/04/16 01:25:18;;;;;;;14.23;9.15;;;5.80;99.90;;;;;;5012800;28;20046;-85
2022/04/16 01:27:45;;;;;;;12.27;8.15;;;6.10;99.90;;;;;;5012753;28;20080;-85
2022/04/16 01:30:13;;;;;;;14.55;9.05;;;5.80;99.90;;;;;;5013470;28;20489;-85
2022/04/16 01:32:40;;;;;;;12.15;8.20;;;5.70;99.90;;;;;;5012694;28;20077;-85
2022/04/16 01:35:06;;;;;;;14.27;9.05;;;5.70;99.90;;;;;;5013417;28;20064;-85
2022/04/16 01:37:37;;;;;;;14.70;8.82;;;5.60;99.90;;;;;;4996574;28;20050;-85
2022/04/16 01:40:05;;;;;;;20.02;11.25;;;5.60;99.90;;;;;;5012721;28;20038;-85
2022/04/16 01:42:32;;;;;;;17.38;9.93;;;5.60;99.90;;;;;;5012787;28;20135;-85
2022/04/16 01:45:05;;;;;;;16.25;10.27;;;5.70;99.90;;;;;;5012463;28;20046;-84
2022/04/16 01:47:36;;;;;;;17.45;10.35;;;5.70;99.90;;;;;;5014964;28;20439;-85
2022/04/16 01:50:07;;;;;;;15.93;10.40;;;5.90;99.90;;;;;;5017327;28;20382;-84
2022/04/16 01:52:35;;;;;;;19.63;11.00;;;5.70;99.90;;;;;;5015984;28;20096;-84
2022/04/16 01:55:00;;;;;;;17.08;10.75;;;5.80;99.90;;;;;;5017341;28;20058;-85
2022/04/16 01:57:26;;;;;;;19.25;11.38;;;5.90;99.90;;;;;;5016629;28;20052;-84
2022/04/16 01:59:52;;;;;;;15.80;11.00;;;5.90;99.90;;;;;;5016057;28;20046;-84
2022/04/16 02:02:19;;;;;;;20.98;11.82;;;5.90;99.90;;;;;;4983831;28;20050;-85
2022/04/16 02:04:45;;;;;;;17.52;10.75;;;5.90;99.90;;;;;;5016449;28;20046;-84
2022/04/16 02:07:11;;;;;;;18.52;11.13;;;5.90;99.90;;;;;;5016507;28;20056;-84
2022/04/16 02:09:36;;;;;;;17.30;10.38;;;5.90;99.90;;;;;;5016119;28;20540;-84
2022/04/16 02:12:02;;;;;;;20.15;11.55;;;5.90;99.90;;;;;;4999776;28;20080;-84
2022/04/16 02:14:28;;;;;;;18.73;13.65;;;5.90;99.90;;;;;;5016097;28;20057;-85
2022/04/16 02:16:54;;;;;;;20.55;14.30;;;6.10;99.90;;;;;;5016013;28;20046;-85
2022/04/16 02:19:20;;;;;;;19.77;11.27;;;5.80;99.90;;;;;;5015914;28;20046;-85
2022/04/16 02:21:47;;;;;;;20.17;11.93;;;5.70;99.90;;;;;;5016924;28;20077;-85
2022/04/16 02:24:13;;;;;;;18.65;11.55;;;5.70;99.90;;;;;;5015857;28;20053;-85
2022/04/16 02:26:40;;;;;;;20.13;12.65;;;5.70;99.90;;;;;;4999573;28;20050;-85
2022/04/16 02:29:08;;;;;;;18.98;10.93;;;6.00;99.90;;;;;;5015782;28;20053;-84
2022/04/16 02:31:34;;;;;;;17.20;10.65;;;5.60;99.90;;;;;;5016535;28;20136;-84
2022/04/16 02:34:00;;;;;;;20.67;11.68;;;5.60;99.90;;;;;;5016537;28;20421;-84
2022/04/16 02:36:26;;;;;;;18.63;11.55;;;5.60;99.90;;;;;;5016620;28;20084;-84
2022/04/16 02:38:54;;;;;;;20.90;13.18;;;5.60;99.90;;;;;;5015234;28;20050;-84
2022/04/16 02:41:23;;;;;;;19.80;12.10;;;5.60;99.90;;;;;;4999220;28;20418;-83
2022/04/16 02:43:49;;;;;;;21.77;13.05;;;5.50;99.90;;;;;;5016402;28;20111;-83
2022/04/16 02:49:00;;;;;;;25.25;13.55;;;5.60;99.90;;;;;;5015427;28;20050;-83
2022/04/16 02:51:27;;;;;;;21.55;11.52;;;5.60;99.90;;;;;;5015368;28;20517;-84
2022/04/16 02:53:52;;;;;;;21.88;13.07;;;5.60;99.90;;;;;;5014864;28;20058;-84
2022/04/16 02:56:18;;;;;;;25.90;14.10;;;5.60;99.90;;;;;;5016118;28;20076;-83
2022/04/16 02:58:44;;;;;;;26.98;15.05;;;5.70;99.90;;;;;;5014310;28;20061;-84
2022/04/16 03:01:09;;;;;;;28.42;14.75;;;5.80;99.90;;;;;;5015122;28;20141;-84
2022/04/16 03:03:35;;;;;;;24.48;14.93;;;5.90;99.90;;;;;;4982933;28;20057;-83
2022/04/16 03:06:01;;;;;;;26.25;14.70;;;6.10;99.90;;;;;;4998790;28;20058;-84
2022/04/16 03:08:26;;;;;;;27.25;15.95;;;6.50;99.90;;;;;;5014873;28;20043;-84
2022/04/16 03:10:54;;;;;;;25.88;15.45;;;6.40;99.90;;;;;;4982549;28;20054;-85
2022/04/16 03:13:19;;;;;;;28.23;15.23;;;6.60;99.90;;;;;;5014990;28;20115;-84
2022/04/16 03:18:30;;;;;;;26.58;14.43;;;6.80;99.90;;;;;;5015536;28;20093;-85
2022/04/16 03:20:57;;;;;;;24.27;13.98;;;7.00;99.90;;;;;;4998489;28;20049;-83
2022/04/16 03:23:23;;;;;;;23.92;14.10;;;6.90;99.90;;;;;;5014758;28;20136;-83
2022/04/16 03:25:49;;;;;;;25.15;13.70;;;7.00;99.90;;;;;;5014967;28;20623;-83
2022/04/16 03:28:15;;;;;;;22.17;13.45;;;7.10;99.90;;;;;;4998235;28;20085;-83
2022/04/16 03:30:42;;;;;;;21.63;13.48;;;7.10;99.90;;;;;;5015340;28;20050;-83
2022/04/16 03:33:08;;;;;;;22.63;12.75;;;7.10;99.90;;;;;;5014686;28;20453;-83
2022/04/16 03:35:35;;;;;;;21.92;12.85;;;7.10;99.90;;;;;;5014749;28;20058;-83
2022/04/16 03:38:01;;;;;;;22.10;13.30;;;7.10;99.90;;;;;;5014361;28;20053;-81
2022/04/16 03:40:27;;;;;;;18.52;11.25;;;7.20;99.90;;;;;;5013764;28;20050;-84
2022/04/16 03:42:56;;;;;;;17.58;11.45;;;7.10;99.90;;;;;;5014243;28;20048;-83
2022/04/16 03:45:35;;;;;;;21.38;12.88;;;7.10;99.90;;;;;;5014405;28;20340;-82
2022/04/16 03:48:06;;;;;;;18.85;11.93;;;7.40;99.90;;;;;;5014712;28;20089;-83
2022/04/16 03:50:33;;;;;;;21.65;12.55;;;7.20;99.90;;;;;;4998808;28;20050;-83
2022/04/16 03:53:00;;;;;;;20.13;12.30;;;7.10;99.90;;;;;;5015651;28;20104;-83
2022/04/16 04:00:59;;;;;;;23.48;12.80;;;7.20;99.90;;;;;;5014343;28;20065;-83
2022/04/16 04:03:24;;;;;;;22.23;13.05;;;7.20;99.90;;;;;;5014084;28;20048;-83
2022/04/16 04:05:53;;;;;;;24.42;13.52;;;7.20;99.90;;;;;;5013968;28;20140;-83
2022/04/16 04:08:20;;;;;;;20.33;11.93;;;7.20;99.90;;;;;;5013848;28;20050;-82
2022/04/16 04:10:46;;;;;;;23.02;12.98;;;7.80;99.90;;;;;;5013728;28;20089;-83
2022/04/16 04:13:16;;;;;;;20.13;13.13;;;7.30;99.90;;;;;;4998294;28;20136;-84
2022/04/16 04:15:42;;;;;;;21.23;12.45;;;7.30;99.90;;;;;;5014050;28;20450;-84
2022/04/16 04:18:08;;;;;;;22.48;13.15;;;7.30;99.90;;;;;;5013735;28;20076;-83
2022/04/16 04:20:35;;;;;;;21.02;12.82;;;7.30;99.90;;;;;;5013743;28;20050;-83
2022/04/16 04:23:02;;;;;;;25.50;13.77;;;7.30;99.90;;;;;;4997562;28;20046;-84
2022/04/16 04:25:27;;;;;;;24.55;13.23;;;7.30;99.90;;;;;;5013324;28;20050;-84
2022/04/16 04:27:53;;;;;;;20.85;12.13;;;7.40;99.90;;;;;;5013624;28;20045;-84
2022/04/16 04:30:19;;;;;;;21.15;13.23;;;7.40;99.90;;;;;;5013476;28;20517;-83
2022/04/16 04:32:45;;;;;;;20.15;11.93;;;7.40;99.90;;;;;;4997296;28;20053;-84
2022/04/16 04:35:11;;;;;;;19.55;12.75;;;7.40;99.90;;;;;;5013561;28;20045;-84
2022/04/16 04:37:37;;;;;;;21.08;11.82;;;7.40;99.90;;;;;;5014225;28;20049;-83
2022/04/16 04:40:04;;;;;;;20.33;11.88;;;7.40;99.90;;;;;;4997150;28;20116;-84
2022/04/16 04:42:32;;;;;;;19.63;10.85;;;7.40;99.90;;;;;;4997819;28;20131;-83
2022/04/16 04:44:58;;;;;;;20.00;11.00;;;7.40;99.90;;;;;;4996991;28;20544;-83
2022/04/16 04:47:24;;;;;;;19.52;10.80;;;7.40;99.90;;;;;;5013022;28;20077;-84
2022/04/16 04:49:50;;;;;;;16.92;10.75;;;7.40;99.90;;;;;;4996869;28;20070;-84
2022/04/16 04:52:26;;;;;;;18.02;10.45;;;7.40;99.90;;;;;;5013102;28;20482;-84
2022/04/16 04:54:58;;;;;;;16.75;9.20;;;7.40;99.90;;;;;;5012879;28;20062;-83
2022/04/16 04:57:24;;;;;;;21.13;11.35;;;7.40;99.90;;;;;;5013191;28;20045;-84
2022/04/16 04:59:50;;;;;;;17.85;10.85;;;7.40;99.90;;;;;;5013170;28;20046;-84
2022/04/16 05:02:16;;;;;;;20.98;11.48;;;7.50;99.90;;;;;;4996983;28;20092;-83
2022/04/16 05:04:42;;;;;;;17.40;9.52;;;7.50;99.90;;;;;;5013229;28;20042;-83
2022/04/16 05:07:09;;;;;;;21.45;11.93;;;7.50;99.90;;;;;;4980460;28;20069;-83
2022/04/16 05:09:35;;;;;;;17.25;10.15;;;7.50;99.90;;;;;;5013757;28;20130;-83
2022/04/16 05:12:02;;;;;;;22.05;10.60;;;7.50;99.90;;;;;;5013119;28;20113;-83
2022/04/16 05:14:27;;;;;;;18.77;9.70;;;7.50;99.90;;;;;;5013663;28;20077;-83
2022/04/16 05:16:53;;;;;;;18.05;10.15;;;7.50;99.90;;;;;;4996593;28;20487;-83
2022/04/16 05:19:19;;;;;;;17.88;9.73;;;7.50;99.90;;;;;;4996113;28;20046;-84
2022/04/16 05:21:44;;;;;;;18.70;10.10;;;7.50;99.90;;;;;;5012364;28;20050;-84
2022/04/16 05:24:10;;;;;;;19.95;11.63;;;7.50;99.90;;;;;;4996632;28;20049;-83
2022/04/16 05:26:39;;;;;;;18.00;10.32;;;7.60;99.90;;;;;;5012466;28;20080;-83
2022/04/16 05:29:06;;;;;;;20.52;11.73;;;7.60;99.90;;;;;;4997108;28;20355;-84
2022/04/16 05:31:32;;;;;;;17.73;10.95;;;7.60;99.90;;;;;;5012953;28;20046;-83
2022/04/16 05:36:43;;;;;;;20.25;10.82;;;7.60;99.90;;;;;;5012944;28;20195;-83
2022/04/16 05:39:09;;;;;;;18.52;10.65;;;7.60;99.90;;;;;;5013344;28;20050;-83
2022/04/16 05:41:36;;;;;;;19.65;10.95;;;7.70;99.90;;;;;;4996117;28;20065;-83
2022/04/16 05:44:03;;;;;;;21.73;10.80;;;8.10;99.90;;;;;;5013339;28;20049;-82
2022/04/16 05:46:29;;;;;;;18.25;10.07;;;7.70;99.90;;;;;;4979999;28;20054;-83
2022/04/16 05:48:55;;;;;;;18.13;9.32;;;7.70;99.90;;;;;;4996219;28;20053;-83
2022/04/16 05:51:22;;;;;;;17.70;9.70;;;7.80;99.90;;;;;;4996859;28;20046;-84
2022/04/16 05:53:49;;;;;;;14.30;9.48;;;7.80;99.90;;;;;;5012152;28;20057;-83
2022/04/16 05:56:16;;;;;;;16.90;9.48;;;7.80;99.90;;;;;;5013241;28;20105;-83
2022/04/16 05:58:42;;;;;;;16.38;9.40;;;8.00;99.90;;;;;;5013179;28;20092;-83
2022/04/16 06:01:09;;;;;;;15.57;9.32;;;7.80;99.90;;;;;;5012395;28;20084;-83
2022/04/16 06:03:42;;;;;;;17.17;9.90;;;7.80;99.90;;;;;;5012481;28;20089;-83
2022/04/16 06:06:09;;;;;;;15.63;9.32;;;7.80;99.90;;;;;;4996322;28;20064;-83
2022/04/16 06:08:36;;;;;;;13.98;8.55;;;7.80;99.90;;;;;;4996130;28;20050;-83
2022/04/16 06:11:03;;;;;;;14.57;8.32;;;7.90;99.90;;;;;;4996182;28;20072;-84
2022/04/16 06:13:30;;;;;;;16.00;9.02;;;8.00;99.90;;;;;;4996185;28;20543;-83
2022/04/16 06:15:56;;;;;;;17.25;8.88;;;8.10;99.90;;;;;;5012216;28;20057;-83
2022/04/16 06:18:22;;;;;;;16.50;7.85;;;8.30;99.90;;;;;;4996340;28;20061;-84
2022/04/16 06:20:48;;;;;;;15.27;9.00;;;8.40;99.90;;;;;;5012191;28;20474;-84
2022/04/16 06:23:13;;;;;;;13.30;7.93;;;8.60;99.90;;;;;;4996061;28;20356;-83
2022/04/16 06:25:39;;;;;;;15.07;8.15;;;8.60;99.90;;;;;;4979957;28;20053;-84
2022/04/16 06:28:05;;;;;;;15.45;8.45;;;8.70;99.90;;;;;;5011967;28;20136;-83
2022/04/16 06:30:31;;;;;;;15.10;8.35;;;8.60;99.90;;;;;;5012966;28;20046;-83
2022/04/16 06:32:56;;;;;;;16.92;7.88;;;8.60;99.90;;;;;;4996763;28;20137;-83
2022/04/16 06:35:22;;;;;;;14.15;7.60;;;8.60;99.90;;;;;;4983220;28;20050;-83
2022/04/16 06:37:48;;;;;;;13.80;7.93;;;8.60;99.90;;;;;;4999085;28;20053;-84
2022/04/16 06:40:14;;;;;;;13.82;7.75;;;8.60;99.90;;;;;;5015571;28;20046;-82
2022/04/16 06:42:40;;;;;;;12.40;7.95;;;8.60;99.90;;;;;;5015404;28;20073;-83
2022/04/16 06:45:07;;;;;;;13.43;7.45;;;8.70;99.90;;;;;;4998836;28;20046;-82
2022/04/16 06:47:33;;;;;;;15.65;8.40;;;8.70;99.90;;;;;;4999146;28;20049;-81
2022/04/16 06:49:59;;;;;;;11.82;6.82;;;8.80;99.90;;;;;;5015398;28;20056;-82
2022/04/16 06:52:25;;;;;;;14.07;7.45;;;8.80;99.90;;;;;;4998692;28;20149;-83
2022/04/16 06:54:51;;;;;;;12.95;7.18;;;9.00;99.90;;;;;;5015414;28;20081;-84
2022/04/16 06:57:17;;;;;;;10.30;5.65;;;9.00;99.90;;;;;;5015313;28;20073;-83
2022/04/16 06:59:43;;;;;;;9.73;5.55;;;8.90;99.90;;;;;;5015029;28;20594;-82
2022/04/16 07:02:10;;;;;;;10.00;5.93;;;8.90;99.90;;;;;;5015196;28;20125;-82
2022/04/16 07:04:37;;;;;;;10.60;6.38;;;9.10;99.90;;;;;;4999573;28;20060;-81
2022/04/16 07:07:03;;;;;;;12.18;6.20;;;9.00;99.90;;;;;;4999180;28;20369;-83
2022/04/16 07:09:29;;;;;;;10.20;6.00;;;9.00;99.90;;;;;;5015003;28;20065;-83
2022/04/16 07:11:55;;;;;;;9.75;5.75;;;9.10;99.90;;;;;;5015008;28;20042;-82
2022/04/16 07:14:21;;;;;;;10.65;5.22;;;9.20;99.90;;;;;;5015766;28;20092;-81
2022/04/16 07:16:48;;;;;;;7.68;4.55;;;9.20;99.90;;;;;;5014906;28;20052;-81
2022/04/16 07:19:14;;;;;;;7.65;4.18;;;9.30;99.90;;;;;;5015079;28;20200;-81
2022/04/16 07:21:39;;;;;;;7.30;3.95;;;9.30;99.90;;;;;;5015531;28;20064;-81
2022/04/16 07:24:05;;;;;;;6.28;3.83;;;9.30;99.90;;;;;;4998141;28;20413;-82
2022/04/16 07:26:31;;;;;;;5.88;3.30;;;9.30;99.90;;;;;;5014389;28;20050;-80
2022/04/16 07:28:57;;;;;;;6.05;3.50;;;9.30;99.90;;;;;;4999123;28;20046;-82
2022/04/16 07:31:23;;;;;;;7.07;3.83;;;9.30;99.90;;;;;;4998725;28;20129;-81
2022/04/16 07:33:48;;;;;;;6.95;3.60;;;9.40;99.90;;;;;;4999133;28;20482;-80
2022/04/16 07:36:14;;;;;;;5.57;3.22;;;9.40;99.90;;;;;;5014535;28;20145;-81
2022/04/16 07:38:43;;;;;;;4.25;2.65;;;9.40;99.90;;;;;;5014505;28;20092;-81
2022/04/16 07:41:10;;;;;;;5.57;3.70;;;9.70;99.90;;;;;;4998884;28;20053;-81
2022/04/16 07:43:35;;;;;;;5.47;2.90;;;9.60;99.90;;;;;;5014710;28;20054;-82
2022/04/16 07:46:01;;;;;;;5.32;3.03;;;9.60;99.90;;;;;;5013727;28;20050;-80
2022/04/16 07:48:27;;;;;;;4.70;2.70;;;9.70;99.90;;;;;;5015869;28;20046;-81
2022/04/16 07:50:53;;;;;;;5.53;2.28;;;9.70;99.90;;;;;;5014295;28;20129;-81
2022/04/16 07:53:19;;;;;;;6.25;3.08;;;9.80;99.90;;;;;;5013663;28;20058;-81
2022/04/16 07:55:45;;;;;;;8.35;2.80;;;9.90;99.90;;;;;;4997603;28;20490;-80
2022/04/16 07:58:11;;;;;;;5.25;2.88;;;10.00;99.90;;;;;;5014100;28;20081;-81
2022/04/16 08:00:37;;;;;;;5.28;2.50;;;10.00;99.90;;;;;;5013912;28;20038;-81
2022/04/16 08:03:02;;;;;;;4.72;2.53;;;10.10;99.90;;;;;;5013946;28;20044;-81
2022/04/16 08:05:28;;;;;;;5.53;2.78;;;10.10;99.90;;;;;;5013949;28;20459;-81
2022/04/16 08:07:54;;;;;;;4.15;2.63;;;10.10;99.90;;;;;;5013521;28;20045;-82
2022/04/16 08:10:20;;;;;;;4.45;2.63;;;10.20;99.90;;;;;;5014290;28;20084;-82
2022/04/16 08:12:45;;;;;;;4.82;3.00;;;10.30;99.90;;;;;;4997466;28;20509;-83
2022/04/16 08:15:11;;;;;;;4.57;2.63;;;10.40;99.90;;;;;;5013581;28;20069;-81
2022/04/16 08:17:40;;;;;;;5.05;2.40;;;10.50;99.90;;;;;;4997112;28;20057;-81
2022/04/16 08:20:06;;;;;;;5.20;2.42;;;10.50;99.90;;;;;;5013411;28;20045;-81
2022/04/16 08:22:34;;;;;;;5.32;2.72;;;10.50;99.90;;;;;;4997346;28;20054;-80
2022/04/16 08:27:45;;;;;;;5.65;2.60;;;10.60;99.90;;;;;;5013596;28;20089;-82
2022/04/16 08:30:15;;;;;;;3.95;2.35;;;10.60;99.90;;;;;;5013413;28;20045;-81
2022/04/16 08:32:42;;;;;;;4.22;2.13;;;10.70;99.90;;;;;;5014228;28;20050;-83
2022/04/16 08:35:14;;;;;;;4.22;2.30;;;10.70;99.90;;;;;;5013715;28;20053;-81
2022/04/16 08:37:41;;;;;;;4.38;2.10;;;10.90;99.90;;;;;;5013628;28;20064;-82
2022/04/16 08:40:07;;;;;;;4.88;2.22;;;11.00;99.90;;;;;;5013323;28;20045;-82
2022/04/16 08:42:35;;;;;;;3.58;1.77;;;11.00;99.90;;;;;;5013323;28;20509;-82
2022/04/16 08:45:02;;;;;;;4.78;2.10;;;11.10;99.90;;;;;;5014253;28;20072;-82
2022/04/16 08:47:28;;;;;;;4.05;2.22;;;11.10;99.90;;;;;;5013451;28;20058;-82
2022/04/16 08:49:54;;;;;;;4.05;1.90;;;11.20;99.90;;;;;;4996656;28;20064;-82
2022/04/16 08:52:22;;;;;;;4.05;2.42;;;11.30;99.90;;;;;;5013871;28;20050;-82
2022/04/16 08:54:48;;;;;;;4.05;2.40;;;11.30;99.90;;;;;;5013286;28;20054;-80
2022/04/16 08:57:14;;;;;;;3.72;1.73;;;11.40;99.90;;;;;;5013220;28;20095;-80
2022/04/16 08:59:47;;;;;;;2.72;1.55;;;11.40;99.90;;;;;;5013884;28;20041;-81
2022/04/16 09:02:13;;;;;;;3.25;1.60;;;11.50;99.90;;;;;;4997464;28;20074;-82
2022/04/16 09:04:39;;;;;;;3.80;1.70;;;11.60;99.90;;;;;;5013221;28;20053;-81
2022/04/16 09:07:05;;;;;;;2.55;1.67;;;11.60;99.90;;;;;;5013572;28;20053;-82
2022/04/16 09:09:30;;;;;;;3.60;1.52;;;11.70;99.90;;;;;;5013921;28;20092;-81
2022/04/16 09:11:56;;;;;;;2.70;1.45;;;11.80;99.90;;;;;;4997307;28;20054;-80
2022/04/16 09:14:35;;;;;;;2.95;1.40;;;11.90;99.90;;;;;;5012961;28;20061;-81
2022/04/16 09:17:01;;;;;;;2.33;1.20;;;12.00;99.90;;;;;;5013056;28;20057;-80
2022/04/16 09:19:29;;;;;;;4.15;1.20;;;12.10;99.90;;;;;;5012601;28;20058;-81
2022/04/16 09:21:55;;;;;;;2.42;1.23;;;12.10;99.90;;;;;;5013002;28;20050;-81
2022/04/16 09:24:21;;;;;;;2.30;1.20;;;12.10;99.90;;;;;;5012650;28;20061;-79
2022/04/16 09:26:49;;;;;;;2.05;1.17;;;12.20;99.90;;;;;;5012998;28;20046;-80
2022/04/16 09:29:16;;;;;;;3.15;1.10;;;12.30;99.90;;;;;;5013709;28;20049;-81
2022/04/16 09:31:45;;;;;;;1.50;0.95;;;12.40;99.90;;;;;;5012419;28;20048;-80
2022/04/16 09:34:19;;;;;;;1.92;1.08;;;12.60;99.90;;;;;;4997112;28;20062;-80
2022/04/16 09:36:44;;;;;;;3.35;1.00;;;12.70;99.90;;;;;;5012673;28;20058;-80
2022/04/16 09:39:11;;;;;;;2.70;0.98;;;12.80;99.90;;;;;;5012901;28;20125;-81
2022/04/16 09:41:39;;;;;;;2.78;0.90;;;12.90;99.90;;;;;;5012626;28;20390;-81
2022/04/16 09:44:18;;;;;;;1.85;0.90;;;12.90;99.90;;;;;;5012329;28;20081;-83
2022/04/16 09:46:49;;;;;;;1.60;0.80;;;12.90;99.90;;;;;;5013135;28;20132;-82
2022/04/16 09:49:16;;;;;;;2.67;0.73;;;12.90;99.90;;;;;;5012836;28;20116;-81
2022/04/16 09:51:44;;;;;;;1.33;0.73;;;12.90;99.90;;;;;;5013497;28;20096;-82
2022/04/16 09:54:11;;;;;;;1.58;0.80;;;13.00;99.90;;;;;;5011930;28;20068;-84
2022/04/16 09:56:39;;;;;;;1.88;0.90;;;13.10;99.90;;;;;;5012477;28;20060;-82
2022/04/16 09:59:08;;;;;;;2.47;1.00;;;13.20;99.90;;;;;;5012312;28;20088;-81
2022/04/16 10:01:35;;;;;;;2.00;1.05;;;13.40;99.90;;;;;;5012318;28;20104;-81
2022/04/16 10:04:01;;;;;;;1.73;0.80;;;13.40;99.90;;;;;;5012635;28;20125;-81
2022/04/16 10:06:30;;;;;;;1.55;0.85;;;13.50;99.90;;;;;;5012166;28;20136;-80
2022/04/16 10:08:58;;;;;;;1.67;0.88;;;13.60;99.90;;;;;;5015277;28;20049;-82
2022/04/16 10:14:38;;;;;;;1.85;0.90;;;13.70;99.90;;;;;;4964703;28;20483;-81
2022/04/16 10:17:27;;;;;;;1.38;0.90;;;13.70;99.90;;;;;;5016822;28;20061;-81
2022/04/16 10:19:55;;;;;;;1.88;1.00;;;13.70;99.90;;;;;;5016915;28;20053;-82
2022/04/16 10:22:26;;;;;;;3.88;3.47;;;13.70;99.90;;;;;;5015662;28;20045;-82
2022/04/16 10:24:56;;;;;;;2.20;0.98;;;13.70;99.90;;;;;;5016708;28;20049;-85
2022/04/16 10:27:31;;;;;;;2.78;1.00;;;13.70;99.90;;;;;;5017356;28;20065;-83
2022/04/16 10:30:01;;;;;;;2.20;1.10;;;13.80;99.90;;;;;;5015535;28;20046;-85
2022/04/16 10:32:41;;;;;;;1.40;0.93;;;13.80;99.90;;;;;;5015470;28;20125;-81
2022/04/16 10:35:17;;;;;;;2.20;1.05;;;13.90;99.90;;;;;;5016710;28;20108;-81
2022/04/16 10:37:49;;;;;;;1.95;1.02;;;13.90;99.90;;;;;;5016682;28;20103;-82
2022/04/16 10:40:18;;;;;;;2.63;1.00;;;14.00;99.90;;;;;;5015261;28;20137;-84
2022/04/16 10:42:49;;;;;;;2.40;1.00;;;14.00;99.90;;;;;;5016441;28;20629;-83
2022/04/16 10:45:15;;;;;;;1.85;0.90;;;13.90;99.90;;;;;;5015538;28;20050;-82
2022/04/16 10:47:42;;;;;;;2.35;1.10;;;13.80;99.90;;;;;;5015503;28;20081;-82
2022/04/16 10:50:15;;;;;;;2.03;0.88;;;13.80;99.90;;;;;;5016131;28;20068;-82
2022/04/16 10:52:53;;;;;;;2.35;0.90;;;13.90;99.90;;;;;;5015220;28;20199;-82
2022/04/16 10:55:20;;;;;;;2.15;1.00;;;14.00;99.90;;;;;;5015469;28;20449;-82
2022/04/16 10:58:00;;;;;;;2.80;1.00;;;14.10;99.90;;;;;;5000016;28;20089;-80
2022/04/16 11:00:44;;;;;;;1.88;0.80;;;14.10;99.90;;;;;;5015822;28;20531;-81
2022/04/16 11:03:18;;;;;;;1.67;0.90;;;14.10;99.90;;;;;;5015082;28;20085;-81
2022/04/16 11:05:44;;;;;;;2.10;0.70;;;14.00;99.90;;;;;;5015291;28;20061;-81
2022/04/16 11:08:12;;;;;;;2.50;0.80;;;14.00;99.90;;;;;;5015083;28;20054;-80
2022/04/16 11:10:39;;;;;;;1.52;0.85;;;14.00;99.90;;;;;;5015251;28;20045;-79
2022/04/16 11:13:05;;;;;;;1.80;1.00;;;14.20;99.90;;;;;;5015939;28;20132;-81
2022/04/16 11:15:32;;;;;;;2.13;0.70;;;14.40;99.90;;;;;;5015751;28;20117;-80
2022/04/16 11:18:00;;;;;;;2.03;1.02;;;14.50;99.90;;;;;;5015793;28;20050;-81
2022/04/16 11:20:27;;;;;;;2.00;0.82;;;14.40;99.90;;;;;;5013345;28;20045;-81
2022/04/16 11:22:54;;;;;;;2.33;1.00;;;14.50;99.90;;;;;;5014605;28;20077;-81
2022/04/16 11:25:25;;;;;;;1.80;1.10;;;14.60;99.90;;;;;;5014523;28;20085;-81
2022/04/16 11:36:07;;;;;;;1.60;0.90;;;14.60;99.90;;;;;;5014803;28;20096;-80
2022/04/16 11:38:34;;;;;;;2.25;0.80;;;14.50;99.90;;;;;;5014401;28;20049;-80
2022/04/16 11:41:01;;;;;;;1.40;0.80;;;14.50;99.90;;;;;;5014757;28;20060;-82
2022/04/16 11:43:30;;;;;;;1.58;0.80;;;14.50;99.90;;;;;;5014798;28;20053;-80
2022/04/16 11:46:01;;;;;;;2.08;0.80;;;14.60;99.90;;;;;;5014906;28;20495;-78
2022/04/16 11:48:28;;;;;;;2.10;1.00;;;14.60;99.90;;;;;;5014604;28;20121;-80
2022/04/16 11:50:54;;;;;;;1.80;1.00;;;14.70;99.90;;;;;;5015154;28;20092;-81
2022/04/16 11:53:20;;;;;;;1.50;1.00;;;14.80;99.90;;;;;;5014746;28;20149;-80
2022/04/16 11:55:47;;;;;;;1.73;0.90;;;15.00;99.90;;;;;;5013601;28;20169;-79
2022/04/16 11:58:13;;;;;;;2.33;0.73;;;15.20;99.90;;;;;;4998046;28;20049;-80
2022/04/16 12:00:55;;;;;;;2.20;1.08;;;15.30;99.90;;;;;;5014867;28;20057;-81
2022/04/16 12:03:21;;;;;;;2.10;0.93;;;15.40;99.50;;;;;;5013961;28;20042;-79
2022/04/16 12:05:48;;;;;;;2.10;1.10;;;15.40;99.90;;;;;;5014712;28;20042;-80
2022/04/16 12:08:17;;;;;;;1.98;0.90;;;15.30;99.90;;;;;;5013931;28;20486;-80
2022/04/16 12:10:47;;;;;;;2.40;1.30;;;15.30;99.40;;;;;;5013550;28;20052;-80
2022/04/16 12:13:14;;;;;;;1.95;0.95;;;15.30;99.50;;;;;;5014203;28;20042;-80
2022/04/16 12:15:44;;;;;;;1.98;0.90;;;15.30;98.20;;;;;;4997364;28;20061;-80
2022/04/16 12:18:22;;;;;;;2.60;0.82;;;15.30;96.10;;;;;;5014459;28;20390;-81
2022/04/16 12:20:48;;;;;;;1.80;0.93;;;15.30;94.40;;;;;;5014414;28;20116;-79
2022/04/16 12:23:22;;;;;;;1.42;0.80;;;15.30;95.90;;;;;;5013670;28;20133;-80
2022/04/16 12:25:48;;;;;;;1.55;0.80;;;15.50;95.40;;;;;;5013653;28;20050;-81
2022/04/16 12:28:15;;;;;;;1.77;0.90;;;15.80;96.80;;;;;;5013122;28;20042;-80
2022/04/16 12:30:49;;;;;;;1.38;0.73;;;16.00;94.80;;;;;;5013639;28;20050;-81
2022/04/16 12:33:15;;;;;;;1.77;0.80;;;16.00;91.90;;;;;;5014910;28;20050;-80
2022/04/16 12:35:47;;;;;;;1.52;0.75;;;16.00;93.30;;;;;;5013325;28;20383;-81
2022/04/16 12:38:15;;;;;;;2.25;0.80;;;16.10;91.30;;;;;;4997522;28;20096;-80
2022/04/16 12:40:42;;;;;;;1.80;0.80;;;16.20;92.30;;;;;;5013070;28;20046;-80
2022/04/16 12:43:08;;;;;;;1.73;0.80;;;16.60;92.30;;;;;;5013190;28;20057;-81
2022/04/16 12:45:34;;;;;;;2.08;1.08;;;16.90;93.00;;;;;;5014224;28;20085;-80
2022/04/16 12:48:01;;;;;;;3.17;1.00;;;17.10;93.20;;;;;;5012966;28;20176;-82
2022/04/16 12:50:28;;;;;;;2.33;0.85;;;17.30;93.30;;;;;;5013282;28;20061;-80
2022/04/16 12:52:54;;;;;;;2.33;0.98;;;17.30;90.90;;;;;;5012570;28;20487;-81
2022/04/16 12:55:20;;;;;;;1.67;0.65;;;17.40;91.20;;;;;;5014642;28;20045;-80
2022/04/16 12:57:46;;;;;;;3.05;0.93;;;17.60;91.60;;;;;;5012978;28;20052;-80
2022/04/16 13:00:13;;;;;;;2.90;0.98;;;17.80;91.10;;;;;;5013971;28;20050;-81
2022/04/16 13:02:42;;;;;;;1.40;0.70;;;17.80;90.60;;;;;;5013076;28;20049;-80
2022/04/16 13:05:08;;;;;;;2.20;1.10;;;18.00;91.30;;;;;;5012790;28;20490;-80
2022/04/16 13:07:39;;;;;;;2.40;0.90;;;18.10;90.50;;;;;;5012805;28;20077;-80
2022/04/16 13:10:06;;;;;;;1.90;0.88;;;18.20;87.00;;;;;;5014637;28;20068;-81
2022/04/16 13:12:36;;;;;;;1.83;0.70;;;18.40;86.40;;;;;;5013561;28;20430;-80
2022/04/16 13:15:02;;;;;;;1.80;0.90;;;18.70;87.50;;;;;;5013699;28;20045;-80